sensor_id;sensor_type;location;lat;lon;timestamp;pressure;altitude;pressure_sealevel;temperature;humidity
33265;BME280;31404;53.974;-1.086;2022-10-16T00:00:38;99700.69;;;8.64;89.99
33265;BME280;31404;53.974;-1.086;2022-10-16T00:05:40;99708.12;;;10.59;82.43
33265;BME280;31404;53.974;-1.086;2022-10-16T00:10:38;99703.85;;;10.54;82.58
33265;BME280;31404;53.974;-1.086;2022-10-16T00:15:36;99718.54;;;8.55;89.59
33265;BME280;31404;53.974;-1.086;2022-10-16T00:20:37;99726.29;;;8.21;89.78
33265;BME280;31404;53.974;-1.086;2022-10-16T00:25:36;99731.86;;;8.75;87.92
33265;BME280;31404;53.974;-1.086;2022-10-16T00:30:37;99743.22;;;8.93;85.70
33265;BME280;31404;53.974;-1.086;2022-10-16T00:35:36;99737.52;;;7.66;93.67
33265;BME280;31404;53.974;-1.086;2022-10-16T00:40:35;99738.35;;;8.33;92.69
33265;BME280;31404;53.974;-1.086;2022-10-16T00:45:35;99753.96;;;6.36;100.00
33265;BME280;31404;53.974;-1.086;2022-10-16T00:50:37;99749.23;;;6.12;100.00
33265;BME280;31404;53.974;-1.086;2022-10-16T00:55:34;99748.12;;;6.02;100.00
33265;BME280;31404;53.974;-1.086;2022-10-16T01:00:35;99753.17;;;7.10;100.00
33265;BME280;31404;53.974;-1.086;2022-10-16T01:20:39;99769.40;;;7.20;100.00
33265;BME280;31404;53.974;-1.086;2022-10-16T01:30:36;99766.68;;;7.72;100.00
33265;BME280;31404;53.974;-1.086;2022-10-16T01:35:37;99765.20;;;7.18;100.00
33265;BME280;31404;53.974;-1.086;2022-10-16T01:45:41;99772.31;;;8.20;100.00
33265;BME280;31404;53.974;-1.086;2022-10-16T02:00:37;99785.12;;;7.65;100.00
33265;BME280;31404;53.974;-1.086;2022-10-16T02:10:35;99780.16;;;7.85;100.00
33265;BME280;31404;53.974;-1.086;2022-10-16T02:15:35;99797.08;;;7.44;100.00
33265;BME280;31404;53.974;-1.086;2022-10-16T02:30:38;99852.38;;;8.63;100.00
33265;BME280;31404;53.974;-1.086;2022-10-16T02:35:36;99877.37;;;8.19;100.00
33265;BME280;31404;53.974;-1.086;2022-10-16T02:40:35;99897.83;;;7.12;100.00
33265;BME280;31404;53.974;-1.086;2022-10-16T02:45:37;99900.35;;;7.85;100.00
33265;BME280;31404;53.974;-1.086;2022-10-16T02:50:35;99913.29;;;8.31;100.00
33265;BME280;31404;53.974;-1.086;2022-10-16T02:55:35;99920.89;;;8.21;100.00
33265;BME280;31404;53.974;-1.086;2022-10-16T03:00:35;99927.16;;;8.42;100.00
33265;BME280;31404;53.974;-1.086;2022-10-16T03:05:36;99934.46;;;6.77;100.00
33265;BME280;31404;53.974;-1.086;2022-10-16T03:10:34;99941.01;;;6.48;100.00
33265;BME280;31404;53.974;-1.086;2022-10-16T03:15:34;99953.53;;;6.68;100.00
33265;BME280;31404;53.974;-1.086;2022-10-16T03:20:35;99964.15;;;6.35;100.00
33265;BME280;31404;53.974;-1.086;2022-10-16T03:25:35;99965.20;;;6.73;100.00
33265;BME280;31404;53.974;-1.086;2022-10-16T03:30:36;99971.08;;;6.07;100.00
33265;BME280;31404;53.974;-1.086;2022-10-16T03:35:36;99975.04;;;6.75;100.00
33265;BME280;31404;53.974;-1.086;2022-10-16T03:40:35;99981.76;;;7.31;100.00
33265;BME280;31404;53.974;-1.086;2022-10-16T03:45:35;99990.21;;;6.78;100.00
33265;BME280;31404;53.974;-1.086;2022-10-16T03:50:38;100009.00;;;6.68;100.00
33265;BME280;31404;53.974;-1.086;2022-10-16T03:55:38;100026.59;;;6.45;100.00
33265;BME280;31404;53.974;-1.086;2022-10-16T04:00:40;100043.21;;;6.91;100.00
33265;BME280;31404;53.974;-1.086;2022-10-16T04:05:37;100046.61;;;7.40;100.00
33265;BME280;31404;53.974;-1.086;2022-10-16T04:10:36;100061.86;;;6.63;100.00
33265;BME280;31404;53.974;-1.086;2022-10-16T04:15:35;100069.71;;;6.33;100.00
33265;BME280;31404;53.974;-1.086;2022-10-16T04:20:37;100071.97;;;7.07;100.00
33265;BME280;31404;53.974;-1.086;2022-10-16T04:25:36;100083.98;;;6.20;100.00
33265;BME280;31404;53.974;-1.086;2022-10-16T04:30:38;100100.95;;;6.12;100.00
33265;BME280;31404;53.974;-1.086;2022-10-16T04:35:37;100112.62;;;6.15;100.00
33265;BME280;31404;53.974;-1.086;2022-10-16T04:40:36;100126.72;;;6.46;100.00
33265;BME280;31404;53.974;-1.086;2022-10-16T04:45:35;100139.72;;;6.34;100.00
33265;BME280;31404;53.974;-1.086;2022-10-16T04:50:36;100146.07;;;6.67;100.00
33265;BME280;31404;53.974;-1.086;2022-10-16T04:55:35;100150.28;;;6.24;100.00
33265;BME280;31404;53.974;-1.086;2022-10-16T05:00:35;100170.27;;;5.53;100.00
33265;BME280;31404;53.974;-1.086;2022-10-16T05:05:35;100181.53;;;6.21;100.00
33265;BME280;31404;53.974;-1.086;2022-10-16T05:10:35;100177.09;;;6.20;100.00
33265;BME280;31404;53.974;-1.086;2022-10-16T05:15:35;100187.58;;;5.99;100.00
33265;BME280;31404;53.974;-1.086;2022-10-16T05:20:36;100202.93;;;4.92;100.00
33265;BME280;31404;53.974;-1.086;2022-10-16T05:25:37;100224.50;;;4.68;100.00
33265;BME280;31404;53.974;-1.086;2022-10-16T05:30:37;100235.28;;;5.12;100.00
33265;BME280;31404;53.974;-1.086;2022-10-16T05:35:36;100244.35;;;5.49;100.00
33265;BME280;31404;53.974;-1.086;2022-10-16T05:40:36;100246.72;;;5.86;100.00
33265;BME280;31404;53.974;-1.086;2022-10-16T05:45:37;100258.36;;;5.60;100.00
33265;BME280;31404;53.974;-1.086;2022-10-16T05:50:35;100267.02;;;6.26;100.00
33265;BME280;31404;53.974;-1.086;2022-10-16T05:55:36;100279.26;;;6.05;100.00
33265;BME280;31404;53.974;-1.086;2022-10-16T06:00:36;100282.75;;;6.31;100.00
33265;BME280;31404;53.974;-1.086;2022-10-16T06:05:35;100281.13;;;6.77;100.00
33265;BME280;31404;53.974;-1.086;2022-10-16T06:10:35;100300.88;;;5.54;100.00
33265;BME280;31404;53.974;-1.086;2022-10-16T06:15:37;100327.43;;;6.69;100.00
33265;BME280;31404;53.974;-1.086;2022-10-16T06:20:38;100345.80;;;6.75;100.00
33265;BME280;31404;53.974;-1.086;2022-10-16T06:25:36;100352.63;;;7.31;95.83
33265;BME280;31404;53.974;-1.086;2022-10-16T06:30:35;100364.40;;;6.12;100.00
33265;BME280;31404;53.974;-1.086;2022-10-16T06:35:37;100373.64;;;6.11;100.00
33265;BME280;31404;53.974;-1.086;2022-10-16T06:40:38;100369.11;;;7.68;92.00
33265;BME280;31404;53.974;-1.086;2022-10-16T06:45:36;100387.10;;;5.58;100.00
33265;BME280;31404;53.974;-1.086;2022-10-16T06:50:34;100399.75;;;6.63;99.29
33265;BME280;31404;53.974;-1.086;2022-10-16T06:55:34;100395.38;;;6.86;96.42
33265;BME280;31404;53.974;-1.086;2022-10-16T07:00:35;100414.01;;;6.10;99.32
33265;BME280;31404;53.974;-1.086;2022-10-16T07:05:37;100415.91;;;5.67;100.00
33265;BME280;31404;53.974;-1.086;2022-10-16T07:10:38;100421.45;;;6.57;97.36
33265;BME280;31404;53.974;-1.086;2022-10-16T07:15:38;100435.71;;;6.23;98.87
33265;BME280;31404;53.974;-1.086;2022-10-16T07:20:34;100442.66;;;6.54;96.64
33265;BME280;31404;53.974;-1.086;2022-10-16T07:25:37;100463.70;;;6.95;94.30
33265;BME280;31404;53.974;-1.086;2022-10-16T07:30:36;100468.79;;;7.20;92.42
33265;BME280;31404;53.974;-1.086;2022-10-16T07:35:37;100484.12;;;6.65;93.77
33265;BME280;31404;53.974;-1.086;2022-10-16T07:40:35;100499.01;;;7.49;90.20
33265;BME280;31404;53.974;-1.086;2022-10-16T07:45:36;100524.63;;;7.35;90.59
33265;BME280;31404;53.974;-1.086;2022-10-16T07:50:35;100541.57;;;7.20;91.72
33265;BME280;31404;53.974;-1.086;2022-10-16T07:55:36;100567.85;;;7.10;91.05
33265;BME280;31404;53.974;-1.086;2022-10-16T08:00:36;100579.23;;;9.16;83.96
33265;BME280;31404;53.974;-1.086;2022-10-16T08:05:36;100585.90;;;9.37;83.24
33265;BME280;31404;53.974;-1.086;2022-10-16T08:10:35;100605.88;;;7.28;89.04
33265;BME280;31404;53.974;-1.086;2022-10-16T08:15:35;100611.88;;;8.48;86.87
33265;BME280;31404;53.974;-1.086;2022-10-16T08:20:34;100624.31;;;7.09;89.82
33265;BME280;31404;53.974;-1.086;2022-10-16T08:25:35;100640.70;;;7.29;92.34
33265;BME280;31404;53.974;-1.086;2022-10-16T08:30:37;100649.41;;;7.12;92.23
33265;BME280;31404;53.974;-1.086;2022-10-16T08:35:35;100656.32;;;7.61;91.92
33265;BME280;31404;53.974;-1.086;2022-10-16T08:40:36;100660.00;;;6.84;92.57
33265;BME280;31404;53.974;-1.086;2022-10-16T09:00:35;100684.06;;;7.49;92.44
33265;BME280;31404;53.974;-1.086;2022-10-16T09:10:41;100702.23;;;8.02;89.40
33265;BME280;31404;53.974;-1.086;2022-10-16T09:15:36;100714.45;;;8.00;91.17
33265;BME280;31404;53.974;-1.086;2022-10-16T09:25:35;100741.88;;;8.22;89.71
33265;BME280;31404;53.974;-1.086;2022-10-16T09:30:35;100754.05;;;7.66;91.84
33265;BME280;31404;53.974;-1.086;2022-10-16T09:35:38;100766.83;;;7.98;90.08
33265;BME280;31404;53.974;-1.086;2022-10-16T09:40:36;100771.58;;;8.84;85.98
33265;BME280;31404;53.974;-1.086;2022-10-16T09:45:34;100775.48;;;7.77;89.99
33265;BME280;31404;53.974;-1.086;2022-10-16T09:50:37;100783.54;;;7.87;91.81
33265;BME280;31404;53.974;-1.086;2022-10-16T09:55:35;100789.61;;;8.00;88.96
33265;BME280;31404;53.974;-1.086;2022-10-16T10:00:37;100787.32;;;7.27;91.94
33265;BME280;31404;53.974;-1.086;2022-10-16T10:20:36;100788.18;;;9.21;83.22
33265;BME280;31404;53.974;-1.086;2022-10-16T10:45:41;100834.32;;;9.73;80.83
33265;BME280;31404;53.974;-1.086;2022-10-16T10:55:40;100849.06;;;9.78;79.83
33265;BME280;31404;53.974;-1.086;2022-10-16T11:05:40;100871.18;;;9.22;82.10
33265;BME280;31404;53.974;-1.086;2022-10-16T11:25:34;100904.21;;;9.16;79.61
33265;BME280;31404;53.974;-1.086;2022-10-16T11:35:41;100905.35;;;8.65;82.56
33265;BME280;31404;53.974;-1.086;2022-10-16T11:45:39;100897.35;;;8.58;80.34
33265;BME280;31404;53.974;-1.086;2022-10-16T11:55:36;100891.09;;;9.42;78.68
33265;BME280;31404;53.974;-1.086;2022-10-16T12:00:39;100901.88;;;9.39;81.05
33265;BME280;31404;53.974;-1.086;2022-10-16T12:10:35;100929.88;;;10.48;74.82
33265;BME280;31404;53.974;-1.086;2022-10-16T12:15:34;100959.42;;;10.43;74.90
33265;BME280;31404;53.974;-1.086;2022-10-16T12:20:37;100961.41;;;10.22;74.24
33265;BME280;31404;53.974;-1.086;2022-10-16T12:25:39;100967.56;;;9.60;76.48
33265;BME280;31404;53.974;-1.086;2022-10-16T12:30:36;100965.34;;;11.52;70.75
33265;BME280;31404;53.974;-1.086;2022-10-16T12:40:37;100955.85;;;10.16;72.89
33265;BME280;31404;53.974;-1.086;2022-10-16T12:45:38;100952.22;;;10.96;72.09
33265;BME280;31404;53.974;-1.086;2022-10-16T12:50:39;100930.06;;;11.30;70.66
33265;BME280;31404;53.974;-1.086;2022-10-16T13:30:39;100981.24;;;13.27;64.16
33265;BME280;31404;53.974;-1.086;2022-10-16T13:35:37;100995.91;;;12.06;66.44
33265;BME280;31404;53.974;-1.086;2022-10-16T13:40:36;101002.08;;;12.20;66.55
33265;BME280;31404;53.974;-1.086;2022-10-16T13:45:35;100999.18;;;11.01;68.94
33265;BME280;31404;53.974;-1.086;2022-10-16T13:50:36;100997.75;;;11.60;67.99
33265;BME280;31404;53.974;-1.086;2022-10-16T13:55:36;100994.71;;;11.09;68.44
33265;BME280;31404;53.974;-1.086;2022-10-16T14:00:34;100989.06;;;11.33;69.28
33265;BME280;31404;53.974;-1.086;2022-10-16T14:05:34;100994.27;;;11.70;65.66
33265;BME280;31404;53.974;-1.086;2022-10-16T14:10:35;101002.24;;;11.90;65.68
33265;BME280;31404;53.974;-1.086;2022-10-16T14:15:36;101000.95;;;13.32;62.00
33265;BME280;31404;53.974;-1.086;2022-10-16T14:20:35;101006.33;;;13.95;59.28
33265;BME280;31404;53.974;-1.086;2022-10-16T14:25:35;101005.04;;;13.79;60.07
33265;BME280;31404;53.974;-1.086;2022-10-16T14:30:36;101013.00;;;15.39;56.76
33265;BME280;31404;53.974;-1.086;2022-10-16T14:35:39;101023.15;;;14.86;56.81
33265;BME280;31404;53.974;-1.086;2022-10-16T14:40:37;101026.35;;;13.64;59.53
33265;BME280;31404;53.974;-1.086;2022-10-16T14:45:35;101028.22;;;12.98;61.78
33265;BME280;31404;53.974;-1.086;2022-10-16T14:50:36;101039.85;;;13.87;59.49
33265;BME280;31404;53.974;-1.086;2022-10-16T14:55:36;101033.03;;;13.60;59.74
33265;BME280;31404;53.974;-1.086;2022-10-16T15:00:35;101024.28;;;13.49;59.41
33265;BME280;31404;53.974;-1.086;2022-10-16T15:05:35;101020.24;;;12.80;60.91
33265;BME280;31404;53.974;-1.086;2022-10-16T15:15:37;101038.93;;;14.96;56.78
33265;BME280;31404;53.974;-1.086;2022-10-16T15:20:39;101037.21;;;13.60;58.81
33265;BME280;31404;53.974;-1.086;2022-10-16T15:25:37;101044.48;;;14.54;57.66
33265;BME280;31404;53.974;-1.086;2022-10-16T15:30:37;101053.89;;;14.32;58.05
33265;BME280;31404;53.974;-1.086;2022-10-16T15:35:35;101060.57;;;14.68;55.99
33265;BME280;31404;53.974;-1.086;2022-10-16T15:40:35;101059.95;;;13.57;58.88
33265;BME280;31404;53.974;-1.086;2022-10-16T15:45:36;101054.76;;;14.47;58.04
33265;BME280;31404;53.974;-1.086;2022-10-16T15:50:37;101047.60;;;13.34;60.43
33265;BME280;31404;53.974;-1.086;2022-10-16T15:55:35;101038.34;;;13.81;59.83
33265;BME280;31404;53.974;-1.086;2022-10-16T16:00:34;101038.02;;;14.47;58.41
33265;BME280;31404;53.974;-1.086;2022-10-16T16:05:38;101045.94;;;14.45;58.69
33265;BME280;31404;53.974;-1.086;2022-10-16T16:10:34;101041.36;;;14.53;60.14
33265;BME280;31404;53.974;-1.086;2022-10-16T16:15:36;101022.12;;;15.15;57.66
33265;BME280;31404;53.974;-1.086;2022-10-16T16:20:34;101027.93;;;15.26;57.37
33265;BME280;31404;53.974;-1.086;2022-10-16T16:25:34;101033.83;;;14.80;58.71
33265;BME280;31404;53.974;-1.086;2022-10-16T16:30:36;101030.46;;;15.42;57.90
33265;BME280;31404;53.974;-1.086;2022-10-16T16:35:35;101024.90;;;15.15;57.55
33265;BME280;31404;53.974;-1.086;2022-10-16T16:40:35;101030.54;;;16.35;55.30
33265;BME280;31404;53.974;-1.086;2022-10-16T16:45:35;101027.09;;;15.53;56.47
33265;BME280;31404;53.974;-1.086;2022-10-16T16:50:35;101035.92;;;14.62;58.07
33265;BME280;31404;53.974;-1.086;2022-10-16T16:55:34;101039.72;;;14.61;58.90
33265;BME280;31404;53.974;-1.086;2022-10-16T17:00:34;101047.73;;;13.79;61.39
33265;BME280;31404;53.974;-1.086;2022-10-16T17:05:34;101039.69;;;15.30;58.57
33265;BME280;31404;53.974;-1.086;2022-10-16T17:15:34;101036.71;;;13.67;62.22
33265;BME280;31404;53.974;-1.086;2022-10-16T17:20:36;101030.70;;;13.23;63.46
33265;BME280;31404;53.974;-1.086;2022-10-16T17:25:39;101037.29;;;12.82;65.48
33265;BME280;31404;53.974;-1.086;2022-10-16T17:30:37;101049.56;;;13.53;63.40
33265;BME280;31404;53.974;-1.086;2022-10-16T17:35:36;101045.23;;;12.64;66.36
33265;BME280;31404;53.974;-1.086;2022-10-16T17:40:35;101035.69;;;13.47;63.84
33265;BME280;31404;53.974;-1.086;2022-10-16T17:45:37;101028.53;;;13.94;62.91
33265;BME280;31404;53.974;-1.086;2022-10-16T17:50:40;101036.32;;;13.92;63.13
33265;BME280;31404;53.974;-1.086;2022-10-16T17:55:39;101030.37;;;14.50;61.11
33265;BME280;31404;53.974;-1.086;2022-10-16T18:05:37;101011.85;;;11.21;69.66
33265;BME280;31404;53.974;-1.086;2022-10-16T18:10:43;100999.90;;;11.66;68.65
33265;BME280;31404;53.974;-1.086;2022-10-16T18:15:35;100985.09;;;11.31;69.89
33265;BME280;31404;53.974;-1.086;2022-10-16T18:20:36;100971.24;;;10.75;70.33
33265;BME280;31404;53.974;-1.086;2022-10-16T18:25:36;100977.00;;;10.49;72.59
33265;BME280;31404;53.974;-1.086;2022-10-16T18:30:35;100978.10;;;11.01;71.72
33265;BME280;31404;53.974;-1.086;2022-10-16T18:35:37;100980.94;;;10.53;72.85
33265;BME280;31404;53.974;-1.086;2022-10-16T18:40:38;100981.15;;;11.27;70.60
33265;BME280;31404;53.974;-1.086;2022-10-16T18:45:38;100986.36;;;10.44;72.75
33265;BME280;31404;53.974;-1.086;2022-10-16T18:50:36;100981.17;;;11.17;71.11
33265;BME280;31404;53.974;-1.086;2022-10-16T18:55:38;100981.65;;;10.53;72.40
33265;BME280;31404;53.974;-1.086;2022-10-16T19:00:35;100967.88;;;11.59;70.33
33265;BME280;31404;53.974;-1.086;2022-10-16T19:05:34;100976.03;;;11.12;70.92
33265;BME280;31404;53.974;-1.086;2022-10-16T19:10:36;100972.75;;;10.71;71.89
33265;BME280;31404;53.974;-1.086;2022-10-16T19:20:35;100972.98;;;10.06;75.23
33265;BME280;31404;53.974;-1.086;2022-10-16T19:25:36;100960.91;;;10.79;72.19
33265;BME280;31404;53.974;-1.086;2022-10-16T19:30:35;100947.75;;;10.34;75.87
33265;BME280;31404;53.974;-1.086;2022-10-16T19:35:39;100937.77;;;9.57;76.43
33265;BME280;31404;53.974;-1.086;2022-10-16T19:40:35;100929.40;;;10.00;74.11
33265;BME280;31404;53.974;-1.086;2022-10-16T19:45:38;100926.17;;;9.92;74.43
33265;BME280;31404;53.974;-1.086;2022-10-16T19:50:36;100934.71;;;9.07;78.07
33265;BME280;31404;53.974;-1.086;2022-10-16T19:55:35;100918.10;;;10.40;73.70
33265;BME280;31404;53.974;-1.086;2022-10-16T20:00:35;100929.01;;;9.43;76.31
33265;BME280;31404;53.974;-1.086;2022-10-16T20:05:36;100913.01;;;8.64;79.55
33265;BME280;31404;53.974;-1.086;2022-10-16T20:10:37;100888.30;;;8.94;79.65
33265;BME280;31404;53.974;-1.086;2022-10-16T20:15:36;100884.85;;;8.96;80.72
33265;BME280;31404;53.974;-1.086;2022-10-16T20:20:36;100870.05;;;10.16;75.91
33265;BME280;31404;53.974;-1.086;2022-10-16T20:25:39;100863.88;;;9.87;78.10
33265;BME280;31404;53.974;-1.086;2022-10-16T20:30:39;100862.10;;;11.68;71.69
33265;BME280;31404;53.974;-1.086;2022-10-16T20:35:35;100866.41;;;10.23;74.86
33265;BME280;31404;53.974;-1.086;2022-10-16T20:40:39;100845.13;;;8.80;83.28
33265;BME280;31404;53.974;-1.086;2022-10-16T20:45:37;100850.03;;;9.35;82.78
33265;BME280;31404;53.974;-1.086;2022-10-16T20:50:39;100837.35;;;9.82;81.67
33265;BME280;31404;53.974;-1.086;2022-10-16T20:55:39;100833.23;;;9.80;82.28
33265;BME280;31404;53.974;-1.086;2022-10-16T21:00:35;100835.76;;;10.15;79.31
33265;BME280;31404;53.974;-1.086;2022-10-16T21:05:40;100831.25;;;11.32;76.77
33265;BME280;31404;53.974;-1.086;2022-10-16T21:10:35;100837.64;;;10.69;80.73
33265;BME280;31404;53.974;-1.086;2022-10-16T21:25:39;100806.13;;;9.96;87.15
33265;BME280;31404;53.974;-1.086;2022-10-16T21:30:37;100806.44;;;10.01;88.14
33265;BME280;31404;53.974;-1.086;2022-10-16T21:35:35;100797.56;;;10.22;91.16
33265;BME280;31404;53.974;-1.086;2022-10-16T21:40:37;100786.49;;;10.24;92.94
33265;BME280;31404;53.974;-1.086;2022-10-16T21:45:37;100762.94;;;9.70;100.00
33265;BME280;31404;53.974;-1.086;2022-10-16T21:50:35;100743.86;;;10.76;100.00
33265;BME280;31404;53.974;-1.086;2022-10-16T21:55:37;100738.92;;;10.16;100.00
33265;BME280;31404;53.974;-1.086;2022-10-16T22:00:35;100734.21;;;9.40;100.00
33265;BME280;31404;53.974;-1.086;2022-10-16T22:05:36;100718.57;;;10.02;100.00
33265;BME280;31404;53.974;-1.086;2022-10-16T22:10:35;100711.60;;;11.63;92.58
33265;BME280;31404;53.974;-1.086;2022-10-16T22:15:36;100704.23;;;11.09;96.80
33265;BME280;31404;53.974;-1.086;2022-10-16T22:20:36;100687.38;;;10.82;100.00
33265;BME280;31404;53.974;-1.086;2022-10-16T22:25:36;100682.77;;;10.98;99.70
33265;BME280;31404;53.974;-1.086;2022-10-16T22:30:37;100676.83;;;11.15;100.00
33265;BME280;31404;53.974;-1.086;2022-10-16T22:35:36;100667.01;;;10.75;100.00
33265;BME280;31404;53.974;-1.086;2022-10-16T22:40:37;100667.54;;;11.81;97.96
33265;BME280;31404;53.974;-1.086;2022-10-16T22:45:36;100645.83;;;10.56;100.00
33265;BME280;31404;53.974;-1.086;2022-10-16T22:50:35;100635.91;;;10.67;100.00
33265;BME280;31404;53.974;-1.086;2022-10-16T22:55:37;100627.63;;;11.61;100.00
33265;BME280;31404;53.974;-1.086;2022-10-16T23:00:36;100630.42;;;9.76;100.00
33265;BME280;31404;53.974;-1.086;2022-10-16T23:05:38;100612.54;;;10.28;100.00
33265;BME280;31404;53.974;-1.086;2022-10-16T23:10:38;100587.92;;;10.65;100.00
33265;BME280;31404;53.974;-1.086;2022-10-16T23:15:38;100593.37;;;10.39;100.00
33265;BME280;31404;53.974;-1.086;2022-10-16T23:20:38;100576.12;;;10.85;100.00
33265;BME280;31404;53.974;-1.086;2022-10-16T23:25:36;100581.38;;;11.56;100.00
33265;BME280;31404;53.974;-1.086;2022-10-16T23:30:34;100577.16;;;10.53;100.00
33265;BME280;31404;53.974;-1.086;2022-10-16T23:35:38;100596.71;;;9.65;100.00
33265;BME280;31404;53.974;-1.086;2022-10-16T23:40:37;100579.73;;;10.59;100.00
33265;BME280;31404;53.974;-1.086;2022-10-16T23:45:36;100583.50;;;10.96;100.00
33265;BME280;31404;53.974;-1.086;2022-10-16T23:50:36;100578.03;;;11.78;100.00
33265;BME280;31404;53.974;-1.086;2022-10-16T23:55:37;100590.13;;;11.51;100.00
